Time;durP1;ratioP1;P1;durP2;ratioP2;P2;SDS_P1;SDS_P2;PMS_P1;PMS_P2;Temp;Humidity;BMP_temperature;BMP_pressure;BME280_temperature;BME280_humidity;BME280_pressure;Samples;Min_cycle;Max_cycle;Signal;HPM_P1;HPM_P2
2022/05/18 00:02:25;;;;;;;9.20;4.50;;;;;;;;;;5135470;28;20122;-67
2022/05/18 00:04:51;;;;;;;7.40;4.30;;;;;;;;;;5135599;28;20045;-67
2022/05/18 00:07:17;;;;;;;7.68;4.38;;;;;;;;;;5135518;28;20069;-67
2022/05/18 00:09:43;;;;;;;7.90;4.30;;;;;;;;;;5135983;28;20066;-67
2022/05/18 00:12:10;;;;;;;6.70;4.55;;;;;;;;;;5135366;28;20042;-67
2022/05/18 00:14:36;;;;;;;9.05;4.47;;;;;;;;;;5135801;28;20059;-67
2022/05/18 00:17:03;;;;;;;8.38;4.10;;;;;;;;;;5135654;28;20039;-67
2022/05/18 00:19:33;;;;;;;6.55;4.10;;;;;;;;;;5135074;28;20062;-67
2022/05/18 00:21:59;;;;;;;7.97;4.45;;;;;;;;;;5135856;28;20039;-67
2022/05/18 00:24:25;;;;;;;8.40;4.30;;;;;;;;;;5135912;28;20068;-67
2022/05/18 00:26:51;;;;;;;11.30;4.32;;;;;;;;;;5135302;28;20043;-67
2022/05/18 00:29:17;;;;;;;9.30;3.92;;;;;;;;;;5135230;28;20386;-67
2022/05/18 00:31:46;;;;;;;8.25;4.63;;;;;;;;;;5135508;28;20119;-67
2022/05/18 00:34:12;;;;;;;9.32;4.13;;;;;;;;;;5135880;28;20092;-67
2022/05/18 00:36:38;;;;;;;6.55;3.90;;;;;;;;;;5135224;28;20118;-67
2022/05/18 00:39:05;;;;;;;17.00;4.30;;;;;;;;;;5135436;28;20039;-67
2022/05/18 00:41:31;;;;;;;8.82;4.18;;;;;;;;;;5135410;28;20092;-67
2022/05/18 00:43:58;;;;;;;9.20;4.38;;;;;;;;;;5135573;28;20050;-67
2022/05/18 00:46:25;;;;;;;7.00;4.03;;;;;;;;;;5135360;28;20046;-67
2022/05/18 00:48:52;;;;;;;7.50;3.85;;;;;;;;;;5135139;28;20047;-67
2022/05/18 00:51:38;;;;;;;8.82;4.13;;;;;;;;;;5135294;28;20046;-67
2022/05/18 00:54:04;;;;;;;7.57;3.65;;;;;;;;;;5135735;28;20050;-67
2022/05/18 00:56:33;;;;;;;7.22;3.72;;;;;;;;;;5135136;28;20039;-67
2022/05/18 00:59:03;;;;;;;7.07;3.90;;;;;;;;;;5135482;28;20351;-67
2022/05/18 01:01:30;;;;;;;7.43;4.07;;;;;;;;;;5135238;28;20063;-67
2022/05/18 01:03:56;;;;;;;8.68;4.22;;;;;;;;;;5135060;27;20357;-67
2022/05/18 01:06:42;;;;;;;11.52;4.07;;;;;;;;;;5138237;27;20043;-67
2022/05/18 01:09:12;;;;;;;9.05;4.10;;;;;;;;;;5138876;27;20121;-67
2022/05/18 01:11:41;;;;;;;10.02;4.80;;;;;;;;;;5138690;27;20039;-67
2022/05/18 01:14:11;;;;;;;11.20;4.68;;;;;;;;;;5139042;27;20059;-67
2022/05/18 01:16:37;;;;;;;8.82;3.95;;;;;;;;;;5138687;27;20043;-67
2022/05/18 01:19:04;;;;;;;11.98;4.30;;;;;;;;;;5138474;27;20059;-67
2022/05/18 01:21:36;;;;;;;7.63;4.15;;;;;;;;;;5138885;27;20038;-67
2022/05/18 01:24:13;;;;;;;7.82;4.40;;;;;;;;;;5139259;27;20039;-67
2022/05/18 01:26:47;;;;;;;8.80;4.45;;;;;;;;;;5138790;27;20173;-67
2022/05/18 01:29:14;;;;;;;8.18;4.43;;;;;;;;;;5138206;27;20397;-67
2022/05/18 01:31:49;;;;;;;9.07;4.43;;;;;;;;;;5138051;27;20066;-67
2022/05/18 01:34:17;;;;;;;7.82;4.13;;;;;;;;;;5138298;27;20141;-67
2022/05/18 01:36:43;;;;;;;7.05;4.75;;;;;;;;;;5138113;27;20065;-67
2022/05/18 01:39:11;;;;;;;8.40;4.40;;;;;;;;;;5138054;27;20050;-67
2022/05/18 01:41:41;;;;;;;11.57;4.43;;;;;;;;;;5138506;27;20042;-67
2022/05/18 01:44:07;;;;;;;8.88;4.65;;;;;;;;;;5138847;27;20070;-67
2022/05/18 01:46:33;;;;;;;12.30;6.38;;;;;;;;;;5138293;27;20524;-67
2022/05/18 01:48:59;;;;;;;16.83;9.00;;;;;;;;;;5137669;27;20123;-67
2022/05/18 01:51:32;;;;;;;18.50;10.13;;;;;;;;;;5138450;27;20046;-67
2022/05/18 01:53:58;;;;;;;18.83;9.32;;;;;;;;;;5138613;27;20038;-67
2022/05/18 01:56:24;;;;;;;16.05;8.52;;;;;;;;;;5137687;27;20553;-67
2022/05/18 01:58:50;;;;;;;15.80;8.63;;;;;;;;;;5137628;27;20039;-67
2022/05/18 02:01:17;;;;;;;15.48;7.88;;;;;;;;;;5137585;27;20486;-67
2022/05/18 02:03:43;;;;;;;14.68;6.72;;;;;;;;;;5137909;27;20046;-67
2022/05/18 02:06:09;;;;;;;9.73;5.70;;;;;;;;;;5137767;27;20039;-67
2022/05/18 02:08:35;;;;;;;12.93;6.80;;;;;;;;;;5137553;27;20043;-67
2022/05/18 02:11:02;;;;;;;14.38;6.43;;;;;;;;;;5137701;27;20039;-67
2022/05/18 02:13:28;;;;;;;14.10;6.60;;;;;;;;;;5137441;27;20465;-67
2022/05/18 02:15:54;;;;;;;14.88;6.07;;;;;;;;;;5137332;27;20084;-67
2022/05/18 02:18:20;;;;;;;11.35;6.25;;;;;;;;;;5137200;27;20054;-67
2022/05/18 02:20:46;;;;;;;10.60;5.53;;;;;;;;;;5137678;27;20046;-67
2022/05/18 02:23:12;;;;;;;10.82;5.32;;;;;;;;;;5137406;27;20042;-67
2022/05/18 02:25:39;;;;;;;10.18;5.15;;;;;;;;;;5137355;27;20092;-67
2022/05/18 02:28:05;;;;;;;12.25;5.85;;;;;;;;;;5137237;27;20054;-67
2022/05/18 02:30:32;;;;;;;10.32;5.60;;;;;;;;;;5137013;27;20042;-67
2022/05/18 02:32:58;;;;;;;13.02;5.75;;;;;;;;;;5136738;27;20050;-67
2022/05/18 02:35:25;;;;;;;13.77;5.40;;;;;;;;;;5137736;27;20053;-67
2022/05/18 02:37:51;;;;;;;10.70;5.75;;;;;;;;;;5137122;27;20550;-67
2022/05/18 02:40:17;;;;;;;9.27;5.38;;;;;;;;;;5137402;27;20031;-67
2022/05/18 02:42:43;;;;;;;9.63;5.15;;;;;;;;;;5136570;27;20478;-67
2022/05/18 02:45:10;;;;;;;12.32;5.93;;;;;;;;;;5136989;27;20070;-67
2022/05/18 02:47:36;;;;;;;11.18;6.03;;;;;;;;;;5136767;27;20047;-67
2022/05/18 02:50:02;;;;;;;10.98;5.65;;;;;;;;;;5136578;27;20035;-67
2022/05/18 02:52:28;;;;;;;10.27;4.97;;;;;;;;;;5136416;27;20035;-67
2022/05/18 02:57:39;;;;;;;11.18;5.20;;;;;;;;;;5136201;27;20123;-67
2022/05/18 03:00:07;;;;;;;11.13;5.88;;;;;;;;;;5136715;27;20551;-67
2022/05/18 03:02:34;;;;;;;8.25;4.90;;;;;;;;;;5136515;27;20039;-67
2022/05/18 03:05:00;;;;;;;10.40;6.20;;;;;;;;;;5136116;27;20563;-67
2022/05/18 03:07:26;;;;;;;8.50;5.50;;;;;;;;;;5136425;27;20088;-67
2022/05/18 03:09:52;;;;;;;11.30;5.47;;;;;;;;;;5136776;27;20503;-67
2022/05/18 03:12:18;;;;;;;9.70;5.53;;;;;;;;;;5136521;27;20031;-67
2022/05/18 03:14:44;;;;;;;10.48;5.97;;;;;;;;;;5137157;27;20430;-67
2022/05/18 03:17:13;;;;;;;10.98;5.60;;;;;;;;;;5136447;27;20172;-67
2022/05/18 03:19:39;;;;;;;10.45;5.10;;;;;;;;;;5136030;27;20039;-67
2022/05/18 03:24:50;;;;;;;9.20;5.40;;;;;;;;;;5135769;27;20629;-67
2022/05/18 03:27:16;;;;;;;9.30;5.57;;;;;;;;;;5135790;27;20488;-67
2022/05/18 03:29:42;;;;;;;12.30;5.20;;;;;;;;;;5136115;27;20039;-67
2022/05/18 03:32:08;;;;;;;6.55;4.72;;;;;;;;;;5136186;27;20111;-67
2022/05/18 03:34:35;;;;;;;9.55;5.20;;;;;;;;;;5136608;27;20039;-67
2022/05/18 03:37:01;;;;;;;13.88;6.43;;;;;;;;;;5136110;27;20047;-67
2022/05/18 03:39:27;;;;;;;10.85;5.80;;;;;;;;;;5136601;27;20527;-67
2022/05/18 03:41:54;;;;;;;10.57;6.05;;;;;;;;;;5136196;27;20066;-67
2022/05/18 03:44:20;;;;;;;10.85;5.68;;;;;;;;;;5135682;27;20035;-67
2022/05/18 03:46:46;;;;;;;8.10;5.53;;;;;;;;;;5117607;27;20088;-67
2022/05/18 03:49:13;;;;;;;9.13;5.40;;;;;;;;;;5668071;22;20114;-68
2022/05/18 03:51:39;;;;;;;11.82;5.90;;;;;;;;;;5054642;28;20044;-68
2022/05/18 03:54:06;;;;;;;10.43;5.93;;;;;;;;;;5054695;28;20112;-68
2022/05/18 03:56:33;;;;;;;10.10;5.82;;;;;;;;;;5054641;28;20474;-68
2022/05/18 03:59:00;;;;;;;8.40;5.20;;;;;;;;;;5054300;28;20040;-68
2022/05/18 04:01:27;;;;;;;9.52;5.38;;;;;;;;;;5628694;22;20068;-67
2022/05/18 04:03:54;;;;;;;9.82;5.50;;;;;;;;;;5069239;28;20039;-68
2022/05/18 04:06:20;;;;;;;13.25;5.70;;;;;;;;;;5630427;22;20020;-68
2022/05/18 04:08:46;;;;;;;10.75;5.20;;;;;;;;;;5068006;28;20131;-68
2022/05/18 04:11:13;;;;;;;12.68;5.95;;;;;;;;;;5054633;28;20044;-68
2022/05/18 04:13:39;;;;;;;10.98;5.82;;;;;;;;;;5064075;28;20036;-68
2022/05/18 04:18:58;;;;;;;8.25;5.13;;;;;;;;;;5487653;23;20057;-68
2022/05/18 04:21:24;;;;;;;7.63;5.22;;;;;;;;;;5005856;28;20069;-68
2022/05/18 04:23:50;;;;;;;9.52;5.53;;;;;;;;;;5013672;28;20041;-68
2022/05/18 04:26:16;;;;;;;9.50;5.32;;;;;;;;;;5558983;23;20017;-68
2022/05/18 04:28:42;;;;;;;8.00;5.15;;;;;;;;;;4966345;28;20490;-68
2022/05/18 04:31:08;;;;;;;11.93;5.30;;;;;;;;;;4956122;29;20043;-69
2022/05/18 04:33:35;;;;;;;12.65;5.40;;;;;;;;;;4956855;28;20039;-67
2022/05/18 04:36:04;;;;;;;8.70;5.38;;;;;;;;;;4963081;28;20074;-68
2022/05/18 04:41:21;;;;;;;8.40;4.95;;;;;;;;;;5443698;23;20072;-69
2022/05/18 04:43:47;;;;;;;9.18;5.20;;;;;;;;;;4998463;28;20038;-69
2022/05/18 04:46:13;;;;;;;11.38;5.30;;;;;;;;;;4998836;28;20042;-69
2022/05/18 04:48:41;;;;;;;12.48;5.80;;;;;;;;;;4998291;28;20125;-69
2022/05/18 04:51:07;;;;;;;11.70;5.25;;;;;;;;;;4981265;28;20500;-69
2022/05/18 04:53:34;;;;;;;9.77;5.53;;;;;;;;;;4998369;28;20039;-69
2022/05/18 04:56:00;;;;;;;12.05;5.53;;;;;;;;;;4998342;28;20469;-69
2022/05/18 04:58:26;;;;;;;11.73;5.10;;;;;;;;;;4998294;28;20046;-69
2022/05/18 05:00:57;;;;;;;10.70;5.68;;;;;;;;;;4998478;28;20038;-69
2022/05/18 05:03:24;;;;;;;8.15;4.97;;;;;;;;;;4998995;28;20038;-69
2022/05/18 05:05:50;;;;;;;9.77;5.32;;;;;;;;;;4997628;28;20392;-69
2022/05/18 05:08:16;;;;;;;8.63;4.97;;;;;;;;;;4998043;28;20050;-69
2022/05/18 05:10:42;;;;;;;9.80;5.10;;;;;;;;;;4998575;28;20057;-69
2022/05/18 05:13:08;;;;;;;9.23;5.40;;;;;;;;;;4998263;28;20034;-69
2022/05/18 05:15:37;;;;;;;9.10;5.30;;;;;;;;;;4998229;28;20042;-69
2022/05/18 05:18:03;;;;;;;9.48;5.18;;;;;;;;;;4997908;28;20034;-69
2022/05/18 05:20:29;;;;;;;10.35;4.70;;;;;;;;;;4997523;28;20042;-69
2022/05/18 05:22:56;;;;;;;6.68;4.35;;;;;;;;;;4997693;28;20116;-69
2022/05/18 05:25:22;;;;;;;15.70;5.05;;;;;;;;;;4998129;28;20046;-69
2022/05/18 05:27:48;;;;;;;11.45;4.80;;;;;;;;;;4998078;28;20047;-69
2022/05/18 05:30:15;;;;;;;9.02;4.60;;;;;;;;;;4998490;28;20050;-69
2022/05/18 05:32:41;;;;;;;8.02;4.15;;;;;;;;;;4997904;28;20038;-69
2022/05/18 05:35:08;;;;;;;10.00;4.00;;;;;;;;;;4998124;28;20125;-69
2022/05/18 05:37:34;;;;;;;8.38;3.90;;;;;;;;;;4997864;28;20038;-69
2022/05/18 05:40:00;;;;;;;6.97;4.10;;;;;;;;;;4997952;28;20121;-70
2022/05/18 05:42:27;;;;;;;7.53;3.50;;;;;;;;;;4996190;28;20048;-69
2022/05/18 05:44:53;;;;;;;8.93;3.28;;;;;;;;;;4989424;28;20050;-69
2022/05/18 05:47:19;;;;;;;7.03;3.33;;;;;;;;;;4995250;28;20057;-69
2022/05/18 05:49:45;;;;;;;5.65;3.22;;;;;;;;;;4996825;28;20132;-70
2022/05/18 05:52:12;;;;;;;6.50;3.25;;;;;;;;;;4995600;28;20125;-70
2022/05/18 05:54:38;;;;;;;7.18;3.95;;;;;;;;;;4997055;28;20042;-70
2022/05/18 05:57:06;;;;;;;11.90;5.38;;;;;;;;;;4996001;28;20038;-70
2022/05/18 05:59:35;;;;;;;11.38;5.00;;;;;;;;;;4977640;28;20569;-70
2022/05/18 06:02:03;;;;;;;10.80;5.28;;;;;;;;;;4986385;28;20049;-70
2022/05/18 06:04:31;;;;;;;9.85;5.72;;;;;;;;;;4996615;28;20042;-70
2022/05/18 06:06:57;;;;;;;8.00;5.40;;;;;;;;;;4992408;28;20074;-70
2022/05/18 06:09:23;;;;;;;11.60;4.97;;;;;;;;;;4996699;28;20070;-70
2022/05/18 06:11:50;;;;;;;8.43;3.97;;;;;;;;;;4989380;28;20061;-70
2022/05/18 06:14:16;;;;;;;11.70;3.88;;;;;;;;;;4977336;28;20035;-70
2022/05/18 06:16:42;;;;;;;6.15;3.65;;;;;;;;;;4977312;28;20044;-70
2022/05/18 06:19:09;;;;;;;6.53;3.70;;;;;;;;;;4977324;28;20122;-69
2022/05/18 06:21:35;;;;;;;8.68;4.70;;;;;;;;;;4976965;28;20062;-70
2022/05/18 06:24:01;;;;;;;5.93;3.80;;;;;;;;;;4983525;28;20092;-70
2022/05/18 06:26:27;;;;;;;9.07;3.97;;;;;;;;;;4996438;28;20077;-69
2022/05/18 06:28:54;;;;;;;8.07;4.25;;;;;;;;;;4995574;28;20050;-69
2022/05/18 06:31:20;;;;;;;8.45;4.15;;;;;;;;;;4996105;28;20070;-69
2022/05/18 06:33:47;;;;;;;9.82;4.20;;;;;;;;;;4995362;28;20038;-69
2022/05/18 06:36:13;;;;;;;5.65;3.45;;;;;;;;;;4995724;28;20038;-69
2022/05/18 06:38:40;;;;;;;6.20;3.42;;;;;;;;;;4996668;28;20053;-69
2022/05/18 06:41:21;;;;;;;5.45;3.28;;;;;;;;;;4995429;28;20125;-69
2022/05/18 06:43:48;;;;;;;9.90;3.38;;;;;;;;;;4994548;28;20145;-69
2022/05/18 06:46:14;;;;;;;7.75;3.13;;;;;;;;;;4995649;28;20061;-69
2022/05/18 06:48:40;;;;;;;7.65;3.10;;;;;;;;;;4996019;28;20501;-69
2022/05/18 06:51:07;;;;;;;8.68;2.97;;;;;;;;;;4994498;28;20501;-69
2022/05/18 06:53:33;;;;;;;7.40;2.40;;;;;;;;;;4995617;28;20038;-69
2022/05/18 06:55:59;;;;;;;5.55;2.53;;;;;;;;;;4995359;28;20046;-69
2022/05/18 06:58:26;;;;;;;6.07;2.80;;;;;;;;;;4996282;28;20101;-69
2022/05/18 07:00:52;;;;;;;6.57;2.30;;;;;;;;;;4978715;28;20416;-69
2022/05/18 07:03:18;;;;;;;8.50;2.85;;;;;;;;;;4995360;28;20030;-69
2022/05/18 07:05:45;;;;;;;6.90;2.53;;;;;;;;;;4995621;28;20042;-69
2022/05/18 07:08:11;;;;;;;8.10;2.50;;;;;;;;;;4995758;28;20046;-69
2022/05/18 07:10:38;;;;;;;4.22;2.50;;;;;;;;;;4995621;28;20489;-69
2022/05/18 07:13:05;;;;;;;5.05;2.30;;;;;;;;;;4995465;28;20037;-69
2022/05/18 07:15:31;;;;;;;7.22;2.50;;;;;;;;;;4995445;28;20496;-69
2022/05/18 07:17:57;;;;;;;6.03;2.70;;;;;;;;;;4995699;28;20038;-69
2022/05/18 07:20:23;;;;;;;5.75;2.50;;;;;;;;;;4995857;28;20125;-69
2022/05/18 07:22:49;;;;;;;7.30;2.85;;;;;;;;;;4995911;28;20124;-69
2022/05/18 07:25:15;;;;;;;8.82;2.78;;;;;;;;;;4995420;28;20046;-69
2022/05/18 07:27:42;;;;;;;4.50;2.80;;;;;;;;;;4995354;28;20042;-69
2022/05/18 07:30:08;;;;;;;3.60;2.25;;;;;;;;;;4995775;28;20050;-69
2022/05/18 07:32:34;;;;;;;6.00;2.95;;;;;;;;;;4996252;28;20117;-69
2022/05/18 07:35:01;;;;;;;9.40;2.80;;;;;;;;;;4995394;28;20042;-69
2022/05/18 07:37:27;;;;;;;5.78;2.90;;;;;;;;;;4995153;28;20120;-69
2022/05/18 07:39:53;;;;;;;8.10;2.75;;;;;;;;;;4995250;28;20400;-69
2022/05/18 07:42:19;;;;;;;9.40;2.55;;;;;;;;;;4995145;28;20054;-69
2022/05/18 07:44:47;;;;;;;7.32;2.83;;;;;;;;;;4995033;28;20042;-69
2022/05/18 07:47:13;;;;;;;5.45;2.67;;;;;;;;;;4994834;28;20050;-69
2022/05/18 07:49:41;;;;;;;6.68;2.97;;;;;;;;;;4995451;28;20088;-69
2022/05/18 07:52:07;;;;;;;4.75;2.80;;;;;;;;;;4994847;28;20055;-69
2022/05/18 07:54:33;;;;;;;9.00;2.85;;;;;;;;;;4995752;28;20519;-69
2022/05/18 07:57:00;;;;;;;7.75;2.40;;;;;;;;;;4994609;28;20034;-69
2022/05/18 07:59:26;;;;;;;5.30;2.25;;;;;;;;;;4995074;28;20092;-69
2022/05/18 08:01:52;;;;;;;5.78;2.78;;;;;;;;;;4994838;28;20425;-70
2022/05/18 08:04:18;;;;;;;8.15;3.03;;;;;;;;;;4995078;28;20054;-70
2022/05/18 08:06:45;;;;;;;8.05;2.60;;;;;;;;;;4995175;28;20037;-70
2022/05/18 08:09:11;;;;;;;4.30;2.40;;;;;;;;;;4995152;28;20030;-70
2022/05/18 08:15:22;;;;;;;9.38;3.22;;;;;;;;;;4994501;28;20527;-70
2022/05/18 08:17:17;;;;;;;6.85;2.38;;;;;;;;;;4985388;28;20525;-70
2022/05/18 08:19:44;;;;;;;5.55;2.60;;;;;;;;;;4998683;28;20045;-70
2022/05/18 08:22:10;;;;;;;5.32;2.88;;;;;;;;;;4998911;28;20046;-70
2022/05/18 08:24:36;;;;;;;6.38;2.63;;;;;;;;;;4998780;28;20039;-70
2022/05/18 08:27:04;;;;;;;8.13;2.90;;;;;;;;;;4998530;28;20038;-70
2022/05/18 08:29:30;;;;;;;5.78;2.70;;;;;;;;;;4998913;28;20042;-70
2022/05/18 08:31:56;;;;;;;13.00;2.90;;;;;;;;;;4998218;28;20038;-71
2022/05/18 08:34:23;;;;;;;5.00;2.33;;;;;;;;;;4997414;28;20041;-71
2022/05/18 08:36:49;;;;;;;5.63;3.20;;;;;;;;;;4998388;28;20042;-71
2022/05/18 08:39:16;;;;;;;9.70;2.67;;;;;;;;;;4998323;28;20092;-70
2022/05/18 08:41:45;;;;;;;6.05;2.90;;;;;;;;;;4997154;28;20054;-70
2022/05/18 08:44:18;;;;;;;6.13;3.00;;;;;;;;;;4999044;28;20030;-70
2022/05/18 08:46:56;;;;;;;5.22;2.85;;;;;;;;;;4998437;28;20051;-69
2022/05/18 08:50:01;;;;;;;7.13;2.85;;;;;;;;;;4998651;28;20054;-69
2022/05/18 08:52:27;;;;;;;6.85;2.80;;;;;;;;;;4915453;29;20079;-69
2022/05/18 08:55:02;;;;;;;9.25;2.55;;;;;;;;;;4919426;29;20135;-69
2022/05/18 08:57:34;;;;;;;4.80;2.78;;;;;;;;;;4960502;28;20050;-69
2022/05/18 09:00:07;;;;;;;4.65;2.55;;;;;;;;;;4997731;28;20100;-70
2022/05/18 09:02:35;;;;;;;5.00;2.72;;;;;;;;;;4997405;28;20038;-69
2022/05/18 09:05:04;;;;;;;7.32;2.53;;;;;;;;;;4998014;28;20554;-69
2022/05/18 09:07:37;;;;;;;6.97;2.90;;;;;;;;;;4990706;28;20049;-69
2022/05/18 09:10:12;;;;;;;7.80;2.78;;;;;;;;;;4978655;28;20051;-69
2022/05/18 09:12:40;;;;;;;6.40;3.00;;;;;;;;;;4979155;28;20045;-69
2022/05/18 09:15:07;;;;;;;6.68;3.03;;;;;;;;;;4978730;28;20047;-69
2022/05/18 09:17:42;;;;;;;6.45;3.05;;;;;;;;;;4978735;28;20053;-69
2022/05/18 09:20:15;;;;;;;4.85;2.70;;;;;;;;;;4989735;28;20050;-69
2022/05/18 09:22:57;;;;;;;5.55;2.70;;;;;;;;;;4998453;28;20046;-69
2022/05/18 09:25:32;;;;;;;4.80;2.85;;;;;;;;;;4997767;28;20070;-70
2022/05/18 09:28:19;;;;;;;8.05;2.95;;;;;;;;;;4988135;28;20089;-70
2022/05/18 09:30:48;;;;;;;4.68;2.60;;;;;;;;;;4994190;28;20208;-71
2022/05/18 09:33:33;;;;;;;4.75;2.47;;;;;;;;;;4996069;28;20034;-71
2022/05/18 09:36:18;;;;;;;6.07;2.90;;;;;;;;;;4997682;28;20034;-70
2022/05/18 09:38:51;;;;;;;5.78;2.92;;;;;;;;;;4997672;28;20082;-70
2022/05/18 09:41:18;;;;;;;6.68;2.90;;;;;;;;;;4979985;28;20147;-70
2022/05/18 09:43:46;;;;;;;5.95;2.70;;;;;;;;;;4996208;28;20038;-70
2022/05/18 09:46:13;;;;;;;7.65;3.00;;;;;;;;;;4998009;28;20042;-70
2022/05/18 09:48:42;;;;;;;5.57;3.13;;;;;;;;;;4984549;28;20083;-70
2022/05/18 09:51:09;;;;;;;4.60;2.60;;;;;;;;;;4996217;28;20050;-69
2022/05/18 09:53:36;;;;;;;4.68;3.05;;;;;;;;;;4995497;28;20042;-69
2022/05/18 09:56:02;;;;;;;6.60;3.20;;;;;;;;;;4975425;28;20129;-69
2022/05/18 09:58:36;;;;;;;7.30;3.00;;;;;;;;;;4995367;28;20050;-69
2022/05/18 10:09:40;;;;;;;4.32;3.00;;;;;;;;;;4994382;28;20082;-70
2022/05/18 10:12:17;;;;;;;5.10;2.83;;;;;;;;;;4977315;28;20035;-70
2022/05/18 10:14:46;;;;;;;7.90;3.38;;;;;;;;;;4977711;28;20038;-70
2022/05/18 10:17:14;;;;;;;10.38;3.38;;;;;;;;;;4977635;28;20066;-70
2022/05/18 10:20:06;;;;;;;9.00;3.17;;;;;;;;;;4982078;28;20039;-70
2022/05/18 10:22:35;;;;;;;8.38;3.28;;;;;;;;;;4987628;28;20499;-70
2022/05/18 10:25:10;;;;;;;7.00;3.17;;;;;;;;;;4995975;28;20042;-70
2022/05/18 10:27:39;;;;;;;9.18;3.33;;;;;;;;;;4996855;28;20050;-70
2022/05/18 10:30:08;;;;;;;15.73;3.70;;;;;;;;;;4996108;28;20038;-70
2022/05/18 10:32:35;;;;;;;9.70;3.45;;;;;;;;;;4995730;28;20112;-70
2022/05/18 10:35:02;;;;;;;9.00;3.17;;;;;;;;;;4996521;28;20038;-70
2022/05/18 10:37:34;;;;;;;7.30;3.45;;;;;;;;;;4996292;28;20160;-70
2022/05/18 10:40:10;;;;;;;8.77;3.10;;;;;;;;;;4996072;28;20044;-70
2022/05/18 10:42:48;;;;;;;7.90;3.00;;;;;;;;;;4996996;28;20048;-70
2022/05/18 10:45:32;;;;;;;7.70;2.97;;;;;;;;;;4994447;28;20405;-70
2022/05/18 10:48:03;;;;;;;13.23;3.40;;;;;;;;;;4976857;28;20452;-70
2022/05/18 10:50:34;;;;;;;8.35;3.80;;;;;;;;;;4994728;28;20100;-69
2022/05/18 10:53:12;;;;;;;8.60;3.78;;;;;;;;;;4995123;28;20170;-69
2022/05/18 10:55:53;;;;;;;6.93;3.58;;;;;;;;;;4995705;28;20074;-69
2022/05/18 10:58:28;;;;;;;8.15;3.50;;;;;;;;;;4996697;28;20050;-69
2022/05/18 11:01:00;;;;;;;10.73;3.22;;;;;;;;;;4996437;28;20050;-69
2022/05/18 11:03:35;;;;;;;9.65;3.17;;;;;;;;;;4995964;28;20038;-69
2022/05/18 11:06:04;;;;;;;5.60;2.90;;;;;;;;;;4995617;28;20045;-69
2022/05/18 11:08:33;;;;;;;5.90;3.15;;;;;;;;;;4996118;28;20485;-73
2022/05/18 11:11:06;;;;;;;9.35;3.13;;;;;;;;;;4994646;28;20104;-69
2022/05/18 11:13:43;;;;;;;7.90;3.10;;;;;;;;;;4997239;28;20030;-68
2022/05/18 11:16:23;;;;;;;7.35;3.20;;;;;;;;;;4997864;28;20089;-69
2022/05/18 11:18:52;;;;;;;4.72;2.88;;;;;;;;;;4995671;28;20049;-69
2022/05/18 11:21:27;;;;;;;13.95;2.97;;;;;;;;;;4995803;28;20053;-69
2022/05/18 11:24:03;;;;;;;9.18;4.00;;;;;;;;;;4994978;28;20042;-69
2022/05/18 11:26:32;;;;;;;6.30;2.90;;;;;;;;;;4994843;28;20046;-69
2022/05/18 11:29:05;;;;;;;13.18;3.28;;;;;;;;;;4995374;28;20046;-69
2022/05/18 11:31:49;;;;;;;8.05;3.20;;;;;;;;;;4996017;28;20050;-69
2022/05/18 11:34:15;;;;;;;11.45;3.28;;;;;;;;;;4995753;28;20049;-69
2022/05/18 11:36:41;;;;;;;8.25;3.38;;;;;;;;;;4995276;28;20116;-69
2022/05/18 11:39:31;;;;;;;11.80;3.40;;;;;;;;;;4995297;28;20046;-69
2022/05/18 11:42:17;;;;;;;11.07;3.58;;;;;;;;;;4961511;28;20061;-69
2022/05/18 11:45:02;;;;;;;7.90;3.28;;;;;;;;;;4995014;28;20053;-69
2022/05/18 11:47:47;;;;;;;7.95;3.30;;;;;;;;;;4993890;28;20050;-71
2022/05/18 11:50:16;;;;;;;5.55;2.90;;;;;;;;;;4986396;28;20070;-71
2022/05/18 11:52:45;;;;;;;6.35;3.20;;;;;;;;;;4994036;28;20093;-71
2022/05/18 11:55:28;;;;;;;13.32;2.90;;;;;;;;;;4993830;28;20039;-71
2022/05/18 11:57:57;;;;;;;7.50;3.13;;;;;;;;;;4994135;28;20084;-71
2022/05/18 12:00:52;;;;;;;4.13;2.80;;;;;;;;;;4987826;28;20085;-70
2022/05/18 12:03:16;;;;;;;10.30;2.53;;;;;;;;;;4994292;28;20051;-71
2022/05/18 12:05:56;;;;;;;5.95;3.13;;;;;;;;;;4987601;28;20560;-71
2022/05/18 12:08:28;;;;;;;9.47;3.17;;;;;;;;;;4991789;28;20104;-71
2022/05/18 12:11:04;;;;;;;8.60;3.53;;;;;;;;;;4995374;28;20038;-71
2022/05/18 12:13:40;;;;;;;6.60;3.03;;;;;;;;;;4994687;28;20038;-71
2022/05/18 12:16:12;;;;;;;6.55;2.78;;;;;;;;;;4984878;28;20097;-71
2022/05/18 12:18:43;;;;;;;5.03;3.00;;;;;;;;;;4991016;28;20123;-71
2022/05/18 12:21:16;;;;;;;8.95;3.17;;;;;;;;;;4976117;28;20054;-69
2022/05/18 12:23:57;;;;;;;8.70;3.15;;;;;;;;;;4984504;28;20038;-73
2022/05/18 12:26:24;;;;;;;7.90;3.60;;;;;;;;;;4991419;28;20042;-73
2022/05/18 12:28:51;;;;;;;7.45;3.60;;;;;;;;;;4985578;28;20137;-71
2022/05/18 12:31:18;;;;;;;8.48;3.55;;;;;;;;;;4986331;28;20131;-72
2022/05/18 12:34:03;;;;;;;6.22;3.25;;;;;;;;;;4984681;28;20073;-72
2022/05/18 12:36:42;;;;;;;7.32;3.13;;;;;;;;;;4989473;28;20089;-71
2022/05/18 12:39:13;;;;;;;6.75;2.90;;;;;;;;;;4976423;28;20110;-71
2022/05/18 12:41:42;;;;;;;9.45;3.63;;;;;;;;;;4995184;28;20085;-71
2022/05/18 12:44:13;;;;;;;10.55;3.08;;;;;;;;;;4987355;28;20490;-70
2022/05/18 12:46:52;;;;;;;9.82;2.75;;;;;;;;;;4993074;28;20034;-71
2022/05/18 12:49:31;;;;;;;9.77;3.17;;;;;;;;;;4994319;28;20054;-71
2022/05/18 12:52:05;;;;;;;6.25;2.90;;;;;;;;;;4989745;28;20088;-70
2022/05/18 12:54:34;;;;;;;9.88;3.50;;;;;;;;;;4981018;28;20047;-71
2022/05/18 12:57:06;;;;;;;16.70;3.38;;;;;;;;;;4990047;28;20038;-70
2022/05/18 12:59:51;;;;;;;10.63;3.35;;;;;;;;;;4989472;28;20187;-71
2022/05/18 13:02:33;;;;;;;8.48;3.10;;;;;;;;;;4989358;28;20054;-71
2022/05/18 13:05:00;;;;;;;7.35;3.42;;;;;;;;;;4983047;28;20035;-70
2022/05/18 13:07:33;;;;;;;5.75;3.15;;;;;;;;;;4985435;28;20184;-71
2022/05/18 13:10:13;;;;;;;8.43;3.13;;;;;;;;;;4988221;28;20038;-71
2022/05/18 13:12:48;;;;;;;5.88;3.30;;;;;;;;;;4995424;28;20042;-71
2022/05/18 13:15:21;;;;;;;5.22;3.10;;;;;;;;;;4995020;28;20375;-70
2022/05/18 13:17:47;;;;;;;7.05;2.92;;;;;;;;;;4987373;28;20054;-70
2022/05/18 13:20:22;;;;;;;5.30;2.75;;;;;;;;;;4992933;28;20049;-69
2022/05/18 13:22:57;;;;;;;10.55;3.08;;;;;;;;;;4979572;28;20047;-69
2022/05/18 13:25:26;;;;;;;9.40;2.80;;;;;;;;;;4991762;28;20526;-70
2022/05/18 13:27:55;;;;;;;8.73;3.45;;;;;;;;;;4982202;28;20050;-70
2022/05/18 13:30:24;;;;;;;6.03;2.78;;;;;;;;;;4980886;28;20068;-69
2022/05/18 13:32:51;;;;;;;12.67;3.37;;;;;;;;;;4993489;28;20444;-70
2022/05/18 13:35:21;;;;;;;11.90;3.47;;;;;;;;;;4993957;28;20034;-70
2022/05/18 13:38:02;;;;;;;7.63;3.40;;;;;;;;;;4996298;28;20053;-69
2022/05/18 13:40:28;;;;;;;5.35;2.97;;;;;;;;;;4987820;28;20055;-70
2022/05/18 13:43:00;;;;;;;8.80;3.40;;;;;;;;;;4977653;28;20049;-70
2022/05/18 13:45:27;;;;;;;15.55;3.33;;;;;;;;;;4977611;28;20093;-69
2022/05/18 13:47:55;;;;;;;13.80;3.30;;;;;;;;;;4977809;28;20047;-69
2022/05/18 13:50:50;;;;;;;6.22;3.15;;;;;;;;;;4977545;28;20109;-69
2022/05/18 13:53:25;;;;;;;14.20;3.40;;;;;;;;;;4943788;28;20459;-69
2022/05/18 13:55:54;;;;;;;11.88;3.38;;;;;;;;;;4977575;28;20046;-69
2022/05/18 13:58:23;;;;;;;6.50;2.83;;;;;;;;;;4977597;28;20046;-69
2022/05/18 14:00:57;;;;;;;9.77;3.35;;;;;;;;;;4977680;28;20129;-69
2022/05/18 14:03:25;;;;;;;7.00;3.13;;;;;;;;;;4960271;28;20491;-69
2022/05/18 14:05:54;;;;;;;8.32;3.00;;;;;;;;;;4975786;28;20125;-68
2022/05/18 14:08:30;;;;;;;10.23;3.13;;;;;;;;;;4958220;28;20424;-69
2022/05/18 14:10:58;;;;;;;6.10;3.13;;;;;;;;;;4977647;28;20062;-69
2022/05/18 14:13:25;;;;;;;5.82;2.80;;;;;;;;;;4977447;28;20042;-70
2022/05/18 14:15:51;;;;;;;5.57;3.00;;;;;;;;;;4976749;28;20070;-70
2022/05/18 14:18:19;;;;;;;10.00;3.20;;;;;;;;;;4975740;28;20050;-70
2022/05/18 14:20:50;;;;;;;8.65;3.30;;;;;;;;;;4971056;28;20073;-70
2022/05/18 14:23:22;;;;;;;15.45;3.20;;;;;;;;;;4974297;28;20041;-69
2022/05/18 14:25:53;;;;;;;15.00;3.63;;;;;;;;;;4975541;28;20043;-69
2022/05/18 14:28:23;;;;;;;6.80;2.97;;;;;;;;;;4975374;28;20410;-69
2022/05/18 14:30:49;;;;;;;7.60;3.10;;;;;;;;;;4976829;28;20440;-69
2022/05/18 14:33:18;;;;;;;8.57;3.13;;;;;;;;;;4977099;28;20042;-69
2022/05/18 14:35:46;;;;;;;7.55;3.13;;;;;;;;;;4975209;28;20070;-69
2022/05/18 14:38:19;;;;;;;5.88;3.25;;;;;;;;;;4976471;28;20121;-69
2022/05/18 14:40:46;;;;;;;7.05;3.17;;;;;;;;;;4965030;28;20531;-69
2022/05/18 14:43:14;;;;;;;15.63;3.05;;;;;;;;;;4995671;28;20129;-69
2022/05/18 14:45:42;;;;;;;13.48;3.80;;;;;;;;;;4995801;28;20575;-69
2022/05/18 14:48:10;;;;;;;6.15;3.13;;;;;;;;;;4995745;28;20057;-69
2022/05/18 14:50:38;;;;;;;6.18;2.67;;;;;;;;;;4995835;28;20080;-69
2022/05/18 14:53:15;;;;;;;8.70;3.08;;;;;;;;;;4995930;28;20030;-69
2022/05/18 14:55:41;;;;;;;8.75;3.58;;;;;;;;;;4995773;28;20416;-69
2022/05/18 14:58:09;;;;;;;10.63;3.60;;;;;;;;;;4995794;28;20062;-69
2022/05/18 15:00:40;;;;;;;4.32;2.88;;;;;;;;;;4996008;28;20046;-69
2022/05/18 15:03:13;;;;;;;7.47;3.13;;;;;;;;;;4995689;28;20072;-69
2022/05/18 15:05:41;;;;;;;8.20;3.00;;;;;;;;;;4995938;28;20133;-69
2022/05/18 15:08:11;;;;;;;7.38;2.70;;;;;;;;;;4995561;28;20044;-69
2022/05/18 15:10:45;;;;;;;5.13;2.53;;;;;;;;;;4995956;28;20050;-69
2022/05/18 15:13:20;;;;;;;7.65;3.20;;;;;;;;;;4996023;28;20050;-69
2022/05/18 15:16:02;;;;;;;7.20;3.20;;;;;;;;;;4995688;28;20042;-69